Aérodrome :
LOGIN :

S'inscrire | Disclaimer

   EN    FR    IT 

 










Légende :    VFR   VFR Marginal   IFR   IFR Intensif   IFR Très Intensif
Visi : 
Plafond : 
>= 8 km
>= 3000ft
5 à 8 km
1000 à 3000 ft
1500m à 5 km
500 à 1000 ft
800 à 1500m
200 à 500 ft
< 800m
< 200 ft
Symboles :   Orages  Brouillard  Fortes neiges  Fortes précipitations  Vent > 20 kt
SIGMETs :   Divers  Orages  Givrage  Turbulence  Onde Orograph.  Cendres Volcan.






- Altitude de l'aérodrome : 510 ft


LJCE - Cerklje

DERNIER METAR :
  • 230100Z AUTO VRB01KT 9999 NSC 19/18 Q1017

METARs EXPIRÉS :
  • 230030Z AUTO 18003KT 9999 NSC 19/18 Q1017
  • 230000Z AUTO VRB01KT 9999 NCD 19/18 Q1017
  • 222330Z AUTO 27002KT 9999 NSC 19/18 Q1016
  • 222300Z AUTO 27002KT 9999 NSC 20/18 Q1016
  • 222230Z AUTO 25003KT 9999 NCD 19/18 Q1016
  • 222200Z AUTO 27002KT 9999 NCD 20/18 Q1016
  • 222130Z AUTO 00000KT 9999 NCD 21/18 Q1015
  • 222100Z AUTO VRB01KT 9999 NCD 21/18 Q1015
  • 222030Z AUTO VRB01KT 9999 NCD 21/18 Q1015

TAF TAF LJCE
Valide du 23 à 00h jusqu'au 23 à 09h UTC


222300Z 2300/2309 VRB02KT CAVOK



MET'MAP, la Météo Aéronautique d'un coup d'oeil ! - Copyright ORBIFLY Décembre 2007 - Disclaimer

ORBIFLY MET'MAP TEAM :

Programmation & Développement : Alexandra Zaïnal
Sur une idée originale de : Baudouin d'Aumeries
Soutien technique & logistique : Manuel Goepfert
Assistance : Marc-Olivier Méhu




SOURCES & CREDITS :

   NOAA